sensor_id;sensor_type;location;lat;lon;timestamp;temperature;humidity
23532;DHT22;11943;52.270;20.978;2023-07-16T00:02:04;24.20;74.90
23532;DHT22;11943;52.270;20.978;2023-07-16T00:04:33;24.10;76.00
23532;DHT22;11943;52.270;20.978;2023-07-16T00:07:00;24.10;75.20
23532;DHT22;11943;52.270;20.978;2023-07-16T00:09:26;24.10;74.40
23532;DHT22;11943;52.270;20.978;2023-07-16T00:11:52;24.10;74.80
23532;DHT22;11943;52.270;20.978;2023-07-16T00:14:18;24.10;74.70
23532;DHT22;11943;52.270;20.978;2023-07-16T00:16:43;24.10;75.30
23532;DHT22;11943;52.270;20.978;2023-07-16T00:19:13;24.10;75.90
23532;DHT22;11943;52.270;20.978;2023-07-16T00:21:39;24.10;76.20
23532;DHT22;11943;52.270;20.978;2023-07-16T00:24:05;24.00;77.00
23532;DHT22;11943;52.270;20.978;2023-07-16T00:26:31;24.00;78.10
23532;DHT22;11943;52.270;20.978;2023-07-16T00:28:56;24.00;79.00
23532;DHT22;11943;52.270;20.978;2023-07-16T00:31:22;24.00;79.70
23532;DHT22;11943;52.270;20.978;2023-07-16T00:33:48;24.00;80.20
23532;DHT22;11943;52.270;20.978;2023-07-16T00:36:13;24.00;80.80
23532;DHT22;11943;52.270;20.978;2023-07-16T00:38:39;23.90;82.10
23532;DHT22;11943;52.270;20.978;2023-07-16T00:41:08;23.80;83.30
23532;DHT22;11943;52.270;20.978;2023-07-16T00:43:33;23.80;85.60
23532;DHT22;11943;52.270;20.978;2023-07-16T00:45:59;23.70;86.70
23532;DHT22;11943;52.270;20.978;2023-07-16T00:48:25;23.70;87.00
23532;DHT22;11943;52.270;20.978;2023-07-16T00:50:52;23.70;87.50
23532;DHT22;11943;52.270;20.978;2023-07-16T00:53:18;23.70;87.90
23532;DHT22;11943;52.270;20.978;2023-07-16T00:55:45;23.70;89.60
23532;DHT22;11943;52.270;20.978;2023-07-16T00:58:11;23.60;90.00
23532;DHT22;11943;52.270;20.978;2023-07-16T01:00:38;23.60;90.50
23532;DHT22;11943;52.270;20.978;2023-07-16T01:03:06;23.60;91.20
23532;DHT22;11943;52.270;20.978;2023-07-16T01:06:13;23.60;91.80
23532;DHT22;11943;52.270;20.978;2023-07-16T01:08:35;23.50;92.70
23532;DHT22;11943;52.270;20.978;2023-07-16T01:11:04;23.40;93.90
23532;DHT22;11943;52.270;20.978;2023-07-16T01:13:30;23.40;94.60
23532;DHT22;11943;52.270;20.978;2023-07-16T01:15:56;23.30;96.00
23532;DHT22;11943;52.270;20.978;2023-07-16T01:18:22;23.20;96.70
23532;DHT22;11943;52.270;20.978;2023-07-16T01:20:47;23.20;97.20
23532;DHT22;11943;52.270;20.978;2023-07-16T01:31:15;23.00;98.90
23532;DHT22;11943;52.270;20.978;2023-07-16T01:33:43;23.00;98.90
23532;DHT22;11943;52.270;20.978;2023-07-16T01:36:09;23.00;99.10
23532;DHT22;11943;52.270;20.978;2023-07-16T01:38:36;23.00;99.30
23532;DHT22;11943;52.270;20.978;2023-07-16T01:41:02;22.90;99.90
23532;DHT22;11943;52.270;20.978;2023-07-16T01:43:27;22.80;99.90
23532;DHT22;11943;52.270;20.978;2023-07-16T01:45:53;22.70;99.90
23532;DHT22;11943;52.270;20.978;2023-07-16T01:50:55;22.50;99.90
23532;DHT22;11943;52.270;20.978;2023-07-16T01:53:21;22.40;99.90
23532;DHT22;11943;52.270;20.978;2023-07-16T01:55:47;22.30;99.90
23532;DHT22;11943;52.270;20.978;2023-07-16T01:58:12;22.20;99.90
23532;DHT22;11943;52.270;20.978;2023-07-16T02:00:39;22.20;99.90
23532;DHT22;11943;52.270;20.978;2023-07-16T02:03:04;22.00;99.90
23532;DHT22;11943;52.270;20.978;2023-07-16T02:05:30;22.00;99.90
23532;DHT22;11943;52.270;20.978;2023-07-16T02:07:55;21.90;99.90
23532;DHT22;11943;52.270;20.978;2023-07-16T02:10:21;21.80;99.90
23532;DHT22;11943;52.270;20.978;2023-07-16T02:12:47;21.80;99.90
23532;DHT22;11943;52.270;20.978;2023-07-16T02:15:12;21.70;99.90
23532;DHT22;11943;52.270;20.978;2023-07-16T02:17:38;21.70;99.90
23532;DHT22;11943;52.270;20.978;2023-07-16T02:20:04;21.60;99.90
23532;DHT22;11943;52.270;20.978;2023-07-16T02:22:34;21.60;99.90
23532;DHT22;11943;52.270;20.978;2023-07-16T02:25:00;21.50;99.90
23532;DHT22;11943;52.270;20.978;2023-07-16T02:27:26;21.40;99.90
23532;DHT22;11943;52.270;20.978;2023-07-16T02:29:52;21.40;99.90
23532;DHT22;11943;52.270;20.978;2023-07-16T02:32:18;21.40;99.90
23532;DHT22;11943;52.270;20.978;2023-07-16T02:34:43;21.30;99.90
23532;DHT22;11943;52.270;20.978;2023-07-16T02:37:09;21.30;99.90
23532;DHT22;11943;52.270;20.978;2023-07-16T02:39:35;21.30;99.90
23532;DHT22;11943;52.270;20.978;2023-07-16T02:42:00;21.20;99.90
23532;DHT22;11943;52.270;20.978;2023-07-16T02:44:26;21.20;99.90
23532;DHT22;11943;52.270;20.978;2023-07-16T02:46:52;21.20;99.90
23532;DHT22;11943;52.270;20.978;2023-07-16T02:49:17;21.20;99.90
23532;DHT22;11943;52.270;20.978;2023-07-16T02:51:43;21.20;99.90
23532;DHT22;11943;52.270;20.978;2023-07-16T02:54:09;21.20;99.90
23532;DHT22;11943;52.270;20.978;2023-07-16T02:56:34;21.20;99.90
23532;DHT22;11943;52.270;20.978;2023-07-16T02:59:00;21.20;99.90
23532;DHT22;11943;52.270;20.978;2023-07-16T03:01:25;21.20;99.90
23532;DHT22;11943;52.270;20.978;2023-07-16T03:03:51;21.20;99.90
23532;DHT22;11943;52.270;20.978;2023-07-16T03:06:17;21.20;99.90
23532;DHT22;11943;52.270;20.978;2023-07-16T03:08:42;21.20;99.90
23532;DHT22;11943;52.270;20.978;2023-07-16T03:11:11;21.20;99.90
23532;DHT22;11943;52.270;20.978;2023-07-16T03:13:36;21.20;99.90
23532;DHT22;11943;52.270;20.978;2023-07-16T03:16:02;21.20;99.90
23532;DHT22;11943;52.270;20.978;2023-07-16T03:18:31;21.20;99.90
23532;DHT22;11943;52.270;20.978;2023-07-16T03:20:57;21.20;99.90
23532;DHT22;11943;52.270;20.978;2023-07-16T03:23:23;21.20;99.90
23532;DHT22;11943;52.270;20.978;2023-07-16T03:25:49;21.20;99.90
23532;DHT22;11943;52.270;20.978;2023-07-16T03:28:15;21.20;99.90
23532;DHT22;11943;52.270;20.978;2023-07-16T03:30:48;21.20;99.90
23532;DHT22;11943;52.270;20.978;2023-07-16T03:33:14;21.20;99.90
23532;DHT22;11943;52.270;20.978;2023-07-16T03:35:45;21.30;99.90
23532;DHT22;11943;52.270;20.978;2023-07-16T03:38:12;21.30;99.90
23532;DHT22;11943;52.270;20.978;2023-07-16T03:40:38;21.30;99.90
23532;DHT22;11943;52.270;20.978;2023-07-16T03:43:04;21.30;99.90
23532;DHT22;11943;52.270;20.978;2023-07-16T03:45:29;21.30;99.90
23532;DHT22;11943;52.270;20.978;2023-07-16T03:47:55;21.40;99.90
23532;DHT22;11943;52.270;20.978;2023-07-16T03:50:21;21.40;99.90
23532;DHT22;11943;52.270;20.978;2023-07-16T03:52:47;21.40;99.90
23532;DHT22;11943;52.270;20.978;2023-07-16T03:55:12;21.40;99.90
23532;DHT22;11943;52.270;20.978;2023-07-16T03:57:38;21.50;99.90
23532;DHT22;11943;52.270;20.978;2023-07-16T04:00:05;21.50;99.90
23532;DHT22;11943;52.270;20.978;2023-07-16T04:02:36;21.50;99.90
23532;DHT22;11943;52.270;20.978;2023-07-16T04:05:03;21.60;99.90
23532;DHT22;11943;52.270;20.978;2023-07-16T04:07:28;21.60;99.90
23532;DHT22;11943;52.270;20.978;2023-07-16T04:09:54;21.70;99.90
23532;DHT22;11943;52.270;20.978;2023-07-16T04:12:20;21.70;99.90
23532;DHT22;11943;52.270;20.978;2023-07-16T04:14:46;21.70;99.90
23532;DHT22;11943;52.270;20.978;2023-07-16T04:17:12;21.80;99.90
23532;DHT22;11943;52.270;20.978;2023-07-16T04:19:38;21.80;99.90
23532;DHT22;11943;52.270;20.978;2023-07-16T04:22:04;21.80;99.90
23532;DHT22;11943;52.270;20.978;2023-07-16T04:24:30;21.90;99.90
23532;DHT22;11943;52.270;20.978;2023-07-16T04:26:55;22.00;99.90
23532;DHT22;11943;52.270;20.978;2023-07-16T04:29:21;22.00;99.90
23532;DHT22;11943;52.270;20.978;2023-07-16T04:31:47;22.10;99.90
23532;DHT22;11943;52.270;20.978;2023-07-16T04:34:13;22.10;99.90
23532;DHT22;11943;52.270;20.978;2023-07-16T04:36:39;22.20;99.90
23532;DHT22;11943;52.270;20.978;2023-07-16T04:39:05;22.30;99.90
23532;DHT22;11943;52.270;20.978;2023-07-16T04:41:30;22.30;99.90
23532;DHT22;11943;52.270;20.978;2023-07-16T04:43:56;22.60;99.90
23532;DHT22;11943;52.270;20.978;2023-07-16T04:46:22;22.90;99.90
23532;DHT22;11943;52.270;20.978;2023-07-16T04:48:48;23.30;99.90
23532;DHT22;11943;52.270;20.978;2023-07-16T04:51:13;23.40;99.90
23532;DHT22;11943;52.270;20.978;2023-07-16T04:53:39;23.50;99.90
23532;DHT22;11943;52.270;20.978;2023-07-16T04:56:10;23.60;99.90
23532;DHT22;11943;52.270;20.978;2023-07-16T04:58:37;23.80;99.90
23532;DHT22;11943;52.270;20.978;2023-07-16T05:01:03;24.00;99.90
23532;DHT22;11943;52.270;20.978;2023-07-16T05:03:29;24.10;99.90
23532;DHT22;11943;52.270;20.978;2023-07-16T05:05:54;24.00;99.90
23532;DHT22;11943;52.270;20.978;2023-07-16T05:08:20;24.30;99.90
23532;DHT22;11943;52.270;20.978;2023-07-16T05:10:46;24.60;99.90
23532;DHT22;11943;52.270;20.978;2023-07-16T05:13:11;25.20;98.80
23532;DHT22;11943;52.270;20.978;2023-07-16T05:15:37;25.50;95.60
23532;DHT22;11943;52.270;20.978;2023-07-16T05:18:03;25.90;94.00
23532;DHT22;11943;52.270;20.978;2023-07-16T05:20:29;26.20;92.60
23532;DHT22;11943;52.270;20.978;2023-07-16T05:22:55;26.40;90.60
23532;DHT22;11943;52.270;20.978;2023-07-16T05:25:20;26.70;90.10
23532;DHT22;11943;52.270;20.978;2023-07-16T05:27:46;27.10;87.40
23532;DHT22;11943;52.270;20.978;2023-07-16T05:30:12;27.70;83.10
23532;DHT22;11943;52.270;20.978;2023-07-16T05:32:37;27.90;80.00
23532;DHT22;11943;52.270;20.978;2023-07-16T05:35:03;28.40;77.80
23532;DHT22;11943;52.270;20.978;2023-07-16T05:37:29;28.30;75.30
23532;DHT22;11943;52.270;20.978;2023-07-16T05:39:55;28.00;75.60
23532;DHT22;11943;52.270;20.978;2023-07-16T05:42:21;28.00;77.90
23532;DHT22;11943;52.270;20.978;2023-07-16T05:44:49;28.10;77.00
23532;DHT22;11943;52.270;20.978;2023-07-16T05:47:15;28.60;75.90
23532;DHT22;11943;52.270;20.978;2023-07-16T05:49:41;28.70;74.90
23532;DHT22;11943;52.270;20.978;2023-07-16T05:52:06;28.70;74.10
23532;DHT22;11943;52.270;20.978;2023-07-16T05:54:33;28.60;73.30
23532;DHT22;11943;52.270;20.978;2023-07-16T05:56:59;28.40;75.80
23532;DHT22;11943;52.270;20.978;2023-07-16T05:59:26;28.50;77.00
23532;DHT22;11943;52.270;20.978;2023-07-16T06:01:51;28.00;79.40
23532;DHT22;11943;52.270;20.978;2023-07-16T06:04:17;28.00;79.70
23532;DHT22;11943;52.270;20.978;2023-07-16T06:06:43;28.20;78.90
23532;DHT22;11943;52.270;20.978;2023-07-16T06:09:09;28.30;79.30
23532;DHT22;11943;52.270;20.978;2023-07-16T06:11:34;28.70;76.80
23532;DHT22;11943;52.270;20.978;2023-07-16T06:14:00;29.00;76.00
23532;DHT22;11943;52.270;20.978;2023-07-16T06:16:26;29.30;74.40
23532;DHT22;11943;52.270;20.978;2023-07-16T06:18:51;29.50;72.10
23532;DHT22;11943;52.270;20.978;2023-07-16T06:21:17;29.60;70.80
23532;DHT22;11943;52.270;20.978;2023-07-16T06:23:43;29.80;69.70
23532;DHT22;11943;52.270;20.978;2023-07-16T06:26:08;29.30;70.10
23532;DHT22;11943;52.270;20.978;2023-07-16T06:28:34;29.40;71.30
23532;DHT22;11943;52.270;20.978;2023-07-16T06:31:00;29.40;71.70
23532;DHT22;11943;52.270;20.978;2023-07-16T06:33:25;29.20;70.90
23532;DHT22;11943;52.270;20.978;2023-07-16T06:35:52;28.90;71.60
23532;DHT22;11943;52.270;20.978;2023-07-16T06:38:18;28.90;73.80
23532;DHT22;11943;52.270;20.978;2023-07-16T06:40:50;28.80;73.30
23532;DHT22;11943;52.270;20.978;2023-07-16T06:43:17;28.70;74.20
23532;DHT22;11943;52.270;20.978;2023-07-16T06:45:43;28.90;74.70
23532;DHT22;11943;52.270;20.978;2023-07-16T06:48:08;28.80;74.30
23532;DHT22;11943;52.270;20.978;2023-07-16T06:50:34;28.70;74.50
23532;DHT22;11943;52.270;20.978;2023-07-16T06:53:00;28.70;74.90
23532;DHT22;11943;52.270;20.978;2023-07-16T06:55:26;28.50;73.40
23532;DHT22;11943;52.270;20.978;2023-07-16T06:57:52;28.40;75.30
23532;DHT22;11943;52.270;20.978;2023-07-16T07:00:18;28.40;77.50
23532;DHT22;11943;52.270;20.978;2023-07-16T07:02:43;28.50;75.90
23532;DHT22;11943;52.270;20.978;2023-07-16T07:05:09;28.60;76.40
23532;DHT22;11943;52.270;20.978;2023-07-16T07:07:35;28.80;76.50
23532;DHT22;11943;52.270;20.978;2023-07-16T07:10:00;28.80;76.50
23532;DHT22;11943;52.270;20.978;2023-07-16T07:12:26;29.00;75.50
23532;DHT22;11943;52.270;20.978;2023-07-16T07:14:52;29.20;74.00
23532;DHT22;11943;52.270;20.978;2023-07-16T07:17:18;29.30;73.60
23532;DHT22;11943;52.270;20.978;2023-07-16T07:19:44;29.30;73.40
23532;DHT22;11943;52.270;20.978;2023-07-16T07:22:09;29.50;73.30
23532;DHT22;11943;52.270;20.978;2023-07-16T07:24:35;29.30;72.20
23532;DHT22;11943;52.270;20.978;2023-07-16T07:27:01;29.30;72.50
23532;DHT22;11943;52.270;20.978;2023-07-16T07:29:27;29.20;71.20
23532;DHT22;11943;52.270;20.978;2023-07-16T07:31:52;29.10;72.20
23532;DHT22;11943;52.270;20.978;2023-07-16T07:34:18;29.40;72.20
23532;DHT22;11943;52.270;20.978;2023-07-16T07:36:44;29.80;71.50
23532;DHT22;11943;52.270;20.978;2023-07-16T07:39:10;29.50;69.30
23532;DHT22;11943;52.270;20.978;2023-07-16T07:41:36;29.70;70.20
23532;DHT22;11943;52.270;20.978;2023-07-16T07:44:02;29.80;70.20
23532;DHT22;11943;52.270;20.978;2023-07-16T07:46:27;29.80;69.30
23532;DHT22;11943;52.270;20.978;2023-07-16T07:48:53;30.00;70.00
23532;DHT22;11943;52.270;20.978;2023-07-16T07:51:19;30.10;67.40
23532;DHT22;11943;52.270;20.978;2023-07-16T07:53:45;30.10;67.90
23532;DHT22;11943;52.270;20.978;2023-07-16T07:56:11;30.30;65.40
23532;DHT22;11943;52.270;20.978;2023-07-16T07:58:37;30.30;65.40
23532;DHT22;11943;52.270;20.978;2023-07-16T08:01:07;30.60;65.50
23532;DHT22;11943;52.270;20.978;2023-07-16T08:03:33;30.60;64.90
23532;DHT22;11943;52.270;20.978;2023-07-16T08:05:59;30.70;65.50
23532;DHT22;11943;52.270;20.978;2023-07-16T08:08:24;30.70;62.90
23532;DHT22;11943;52.270;20.978;2023-07-16T08:10:50;30.90;63.30
23532;DHT22;11943;52.270;20.978;2023-07-16T08:13:15;31.30;62.90
23532;DHT22;11943;52.270;20.978;2023-07-16T08:15:41;31.20;62.30
23532;DHT22;11943;52.270;20.978;2023-07-16T08:18:07;31.40;62.60
23532;DHT22;11943;52.270;20.978;2023-07-16T08:20:32;31.50;61.30
23532;DHT22;11943;52.270;20.978;2023-07-16T08:22:58;31.50;59.50
23532;DHT22;11943;52.270;20.978;2023-07-16T08:25:24;31.60;59.80
23532;DHT22;11943;52.270;20.978;2023-07-16T08:27:49;31.70;60.10
23532;DHT22;11943;52.270;20.978;2023-07-16T08:30:15;31.80;58.40
23532;DHT22;11943;52.270;20.978;2023-07-16T08:32:41;31.90;57.60
23532;DHT22;11943;52.270;20.978;2023-07-16T08:35:06;32.00;58.00
23532;DHT22;11943;52.270;20.978;2023-07-16T08:37:32;32.20;56.30
23532;DHT22;11943;52.270;20.978;2023-07-16T08:39:58;32.10;56.60
23532;DHT22;11943;52.270;20.978;2023-07-16T08:42:24;32.30;56.40
23532;DHT22;11943;52.270;20.978;2023-07-16T08:44:50;32.20;55.50
23532;DHT22;11943;52.270;20.978;2023-07-16T08:47:16;32.20;55.00
23532;DHT22;11943;52.270;20.978;2023-07-16T08:49:54;32.60;55.30
23532;DHT22;11943;52.270;20.978;2023-07-16T08:52:20;32.70;55.40
23532;DHT22;11943;52.270;20.978;2023-07-16T08:54:46;33.00;54.30
23532;DHT22;11943;52.270;20.978;2023-07-16T08:57:13;32.90;53.10
23532;DHT22;11943;52.270;20.978;2023-07-16T08:59:39;32.70;53.60
23532;DHT22;11943;52.270;20.978;2023-07-16T09:02:05;32.80;53.00
23532;DHT22;11943;52.270;20.978;2023-07-16T09:04:32;32.70;52.20
23532;DHT22;11943;52.270;20.978;2023-07-16T09:06:58;32.70;53.20
23532;DHT22;11943;52.270;20.978;2023-07-16T09:09:24;32.90;51.80
23532;DHT22;11943;52.270;20.978;2023-07-16T09:11:49;32.90;52.40
23532;DHT22;11943;52.270;20.978;2023-07-16T09:14:19;33.00;53.40
23532;DHT22;11943;52.270;20.978;2023-07-16T09:16:51;33.00;52.00
23532;DHT22;11943;52.270;20.978;2023-07-16T09:19:17;32.90;51.90
23532;DHT22;11943;52.270;20.978;2023-07-16T09:21:48;33.20;52.30
23532;DHT22;11943;52.270;20.978;2023-07-16T09:24:14;33.20;51.30
23532;DHT22;11943;52.270;20.978;2023-07-16T09:26:51;33.30;51.10
23532;DHT22;11943;52.270;20.978;2023-07-16T09:29:17;33.30;51.60
23532;DHT22;11943;52.270;20.978;2023-07-16T09:34:19;33.60;50.50
23532;DHT22;11943;52.270;20.978;2023-07-16T09:36:47;33.40;49.50
23532;DHT22;11943;52.270;20.978;2023-07-16T09:39:16;33.40;50.20
23532;DHT22;11943;52.270;20.978;2023-07-16T09:41:42;33.60;50.70
23532;DHT22;11943;52.270;20.978;2023-07-16T09:44:09;33.70;50.40
23532;DHT22;11943;52.270;20.978;2023-07-16T09:46:35;33.90;49.60
23532;DHT22;11943;52.270;20.978;2023-07-16T09:49:00;33.70;50.00
23532;DHT22;11943;52.270;20.978;2023-07-16T09:51:27;33.60;50.40
23532;DHT22;11943;52.270;20.978;2023-07-16T09:53:56;33.90;51.00
23532;DHT22;11943;52.270;20.978;2023-07-16T09:56:25;34.30;49.00
23532;DHT22;11943;52.270;20.978;2023-07-16T09:58:55;34.20;49.10
23532;DHT22;11943;52.270;20.978;2023-07-16T10:01:21;33.90;48.40
23532;DHT22;11943;52.270;20.978;2023-07-16T10:03:50;34.20;48.80
23532;DHT22;11943;52.270;20.978;2023-07-16T10:06:17;34.40;47.80
23532;DHT22;11943;52.270;20.978;2023-07-16T10:08:49;34.60;49.50
23532;DHT22;11943;52.270;20.978;2023-07-16T10:11:18;34.80;47.60
23532;DHT22;11943;52.270;20.978;2023-07-16T10:13:50;34.80;46.80
23532;DHT22;11943;52.270;20.978;2023-07-16T10:16:20;34.60;46.30
23532;DHT22;11943;52.270;20.978;2023-07-16T10:18:51;34.00;47.20
23532;DHT22;11943;52.270;20.978;2023-07-16T10:21:23;33.70;47.90
23532;DHT22;11943;52.270;20.978;2023-07-16T10:23:59;33.90;49.20
23532;DHT22;11943;52.270;20.978;2023-07-16T10:26:29;33.90;49.20
23532;DHT22;11943;52.270;20.978;2023-07-16T10:28:55;33.80;49.50
23532;DHT22;11943;52.270;20.978;2023-07-16T10:31:23;33.80;48.90
23532;DHT22;11943;52.270;20.978;2023-07-16T10:34:21;33.70;49.80
23532;DHT22;11943;52.270;20.978;2023-07-16T10:36:47;33.20;50.80
23532;DHT22;11943;52.270;20.978;2023-07-16T10:39:14;33.00;51.00
23532;DHT22;11943;52.270;20.978;2023-07-16T10:41:40;32.80;51.70
23532;DHT22;11943;52.270;20.978;2023-07-16T10:44:08;32.80;52.20
23532;DHT22;11943;52.270;20.978;2023-07-16T10:46:36;32.80;52.20
23532;DHT22;11943;52.270;20.978;2023-07-16T10:49:02;32.50;53.20
23532;DHT22;11943;52.270;20.978;2023-07-16T10:51:28;32.60;53.90
23532;DHT22;11943;52.270;20.978;2023-07-16T10:53:57;32.70;54.20
23532;DHT22;11943;52.270;20.978;2023-07-16T10:56:23;32.90;54.40
23532;DHT22;11943;52.270;20.978;2023-07-16T10:58:49;32.80;54.40
23532;DHT22;11943;52.270;20.978;2023-07-16T11:01:15;33.00;55.80
23532;DHT22;11943;52.270;20.978;2023-07-16T11:03:40;33.00;54.30
23532;DHT22;11943;52.270;20.978;2023-07-16T11:06:10;33.00;54.50
23532;DHT22;11943;52.270;20.978;2023-07-16T11:08:37;33.10;54.40
23532;DHT22;11943;52.270;20.978;2023-07-16T11:11:03;33.40;55.00
23532;DHT22;11943;52.270;20.978;2023-07-16T11:13:34;33.40;53.00
23532;DHT22;11943;52.270;20.978;2023-07-16T11:16:09;33.20;53.20
23532;DHT22;11943;52.270;20.978;2023-07-16T11:18:35;33.10;54.30
23532;DHT22;11943;52.270;20.978;2023-07-16T11:21:01;33.10;54.90
23532;DHT22;11943;52.270;20.978;2023-07-16T11:23:27;33.40;54.80
23532;DHT22;11943;52.270;20.978;2023-07-16T11:25:53;33.40;53.60
23532;DHT22;11943;52.270;20.978;2023-07-16T11:28:19;33.40;54.90
23532;DHT22;11943;52.270;20.978;2023-07-16T11:30:44;33.70;54.00
23532;DHT22;11943;52.270;20.978;2023-07-16T11:33:11;33.90;52.40
23532;DHT22;11943;52.270;20.978;2023-07-16T11:35:40;33.90;52.60
23532;DHT22;11943;52.270;20.978;2023-07-16T11:38:06;33.90;53.00
23532;DHT22;11943;52.270;20.978;2023-07-16T11:40:34;34.20;51.70
23532;DHT22;11943;52.270;20.978;2023-07-16T11:43:13;34.40;52.00
23532;DHT22;11943;52.270;20.978;2023-07-16T11:45:39;34.40;52.00
23532;DHT22;11943;52.270;20.978;2023-07-16T11:48:05;34.80;51.30
23532;DHT22;11943;52.270;20.978;2023-07-16T11:50:31;34.80;50.90
23532;DHT22;11943;52.270;20.978;2023-07-16T11:53:00;34.60;49.90
23532;DHT22;11943;52.270;20.978;2023-07-16T11:55:27;34.20;51.40
23532;DHT22;11943;52.270;20.978;2023-07-16T11:57:53;33.70;52.10
23532;DHT22;11943;52.270;20.978;2023-07-16T12:00:18;34.00;53.30
23532;DHT22;11943;52.270;20.978;2023-07-16T12:02:44;34.00;52.00
23532;DHT22;11943;52.270;20.978;2023-07-16T12:05:17;33.90;51.90
23532;DHT22;11943;52.270;20.978;2023-07-16T12:07:43;33.80;52.20
23532;DHT22;11943;52.270;20.978;2023-07-16T12:10:08;33.90;52.10
23532;DHT22;11943;52.270;20.978;2023-07-16T12:12:34;33.70;52.60
23532;DHT22;11943;52.270;20.978;2023-07-16T12:15:06;33.80;50.40
23532;DHT22;11943;52.270;20.978;2023-07-16T12:17:32;33.70;51.40
23532;DHT22;11943;52.270;20.978;2023-07-16T12:19:58;33.90;50.70
23532;DHT22;11943;52.270;20.978;2023-07-16T12:22:24;33.90;51.00
23532;DHT22;11943;52.270;20.978;2023-07-16T12:24:50;33.90;49.90
23532;DHT22;11943;52.270;20.978;2023-07-16T12:27:16;33.90;50.20
23532;DHT22;11943;52.270;20.978;2023-07-16T12:29:42;33.50;50.00
23532;DHT22;11943;52.270;20.978;2023-07-16T12:32:07;33.60;52.40
23532;DHT22;11943;52.270;20.978;2023-07-16T12:34:34;33.60;50.60
23532;DHT22;11943;52.270;20.978;2023-07-16T12:36:59;33.60;51.30
23532;DHT22;11943;52.270;20.978;2023-07-16T12:39:25;33.80;51.10
23532;DHT22;11943;52.270;20.978;2023-07-16T12:41:51;33.90;49.70
23532;DHT22;11943;52.270;20.978;2023-07-16T12:44:16;33.90;49.10
23532;DHT22;11943;52.270;20.978;2023-07-16T12:46:42;33.80;49.10
23532;DHT22;11943;52.270;20.978;2023-07-16T12:49:07;33.60;49.30
23532;DHT22;11943;52.270;20.978;2023-07-16T12:51:33;33.70;48.90
23532;DHT22;11943;52.270;20.978;2023-07-16T12:53:59;33.60;49.30
23532;DHT22;11943;52.270;20.978;2023-07-16T12:56:26;33.50;49.50
23532;DHT22;11943;52.270;20.978;2023-07-16T12:58:52;33.40;49.40
23532;DHT22;11943;52.270;20.978;2023-07-16T13:01:17;33.30;49.90
23532;DHT22;11943;52.270;20.978;2023-07-16T13:03:43;32.80;50.70
23532;DHT22;11943;52.270;20.978;2023-07-16T13:06:09;32.70;50.80
23532;DHT22;11943;52.270;20.978;2023-07-16T13:08:34;32.60;50.40
23532;DHT22;11943;52.270;20.978;2023-07-16T13:11:00;32.20;50.50
23532;DHT22;11943;52.270;20.978;2023-07-16T13:13:27;32.00;50.50
23532;DHT22;11943;52.270;20.978;2023-07-16T13:15:52;32.10;50.60
23532;DHT22;11943;52.270;20.978;2023-07-16T13:18:18;32.10;50.00
23532;DHT22;11943;52.270;20.978;2023-07-16T13:20:44;32.10;49.70
23532;DHT22;11943;52.270;20.978;2023-07-16T13:23:10;32.30;49.60
23532;DHT22;11943;52.270;20.978;2023-07-16T13:25:36;32.30;49.50
23532;DHT22;11943;52.270;20.978;2023-07-16T13:28:07;32.20;50.10
23532;DHT22;11943;52.270;20.978;2023-07-16T13:30:33;32.10;50.40
23532;DHT22;11943;52.270;20.978;2023-07-16T13:32:59;32.00;50.60
23532;DHT22;11943;52.270;20.978;2023-07-16T13:35:26;31.90;51.10
23532;DHT22;11943;52.270;20.978;2023-07-16T13:37:52;32.00;51.50
23532;DHT22;11943;52.270;20.978;2023-07-16T13:40:17;32.10;51.20
23532;DHT22;11943;52.270;20.978;2023-07-16T13:42:48;32.10;51.60
23532;DHT22;11943;52.270;20.978;2023-07-16T13:45:14;32.20;51.20
23532;DHT22;11943;52.270;20.978;2023-07-16T13:47:40;32.30;51.00
23532;DHT22;11943;52.270;20.978;2023-07-16T13:50:06;32.50;51.00
23532;DHT22;11943;52.270;20.978;2023-07-16T13:52:31;32.80;49.70
23532;DHT22;11943;52.270;20.978;2023-07-16T13:54:57;33.30;49.30
23532;DHT22;11943;52.270;20.978;2023-07-16T13:57:23;33.00;47.70
23532;DHT22;11943;52.270;20.978;2023-07-16T13:59:49;32.80;48.50
23532;DHT22;11943;52.270;20.978;2023-07-16T14:02:15;33.00;48.40
23532;DHT22;11943;52.270;20.978;2023-07-16T14:04:40;33.10;47.70
23532;DHT22;11943;52.270;20.978;2023-07-16T14:07:06;33.00;48.10
23532;DHT22;11943;52.270;20.978;2023-07-16T14:09:31;32.90;48.60
23532;DHT22;11943;52.270;20.978;2023-07-16T14:11:57;33.00;48.40
23532;DHT22;11943;52.270;20.978;2023-07-16T14:14:23;32.80;49.10
23532;DHT22;11943;52.270;20.978;2023-07-16T14:16:49;32.70;48.80
23532;DHT22;11943;52.270;20.978;2023-07-16T14:19:14;32.50;48.40
23532;DHT22;11943;52.270;20.978;2023-07-16T14:21:40;32.30;49.00
23532;DHT22;11943;52.270;20.978;2023-07-16T14:24:06;32.20;49.50
23532;DHT22;11943;52.270;20.978;2023-07-16T14:26:32;32.10;50.30
23532;DHT22;11943;52.270;20.978;2023-07-16T14:28:58;31.80;49.70
23532;DHT22;11943;52.270;20.978;2023-07-16T14:31:24;31.70;50.80
23532;DHT22;11943;52.270;20.978;2023-07-16T14:33:50;31.70;51.00
23532;DHT22;11943;52.270;20.978;2023-07-16T14:36:15;32.00;50.60
23532;DHT22;11943;52.270;20.978;2023-07-16T14:38:43;31.90;51.60
23532;DHT22;11943;52.270;20.978;2023-07-16T14:41:08;32.00;49.90
23532;DHT22;11943;52.270;20.978;2023-07-16T14:43:34;31.90;50.10
23532;DHT22;11943;52.270;20.978;2023-07-16T14:46:00;31.90;50.40
23532;DHT22;11943;52.270;20.978;2023-07-16T14:48:25;31.70;50.30
23532;DHT22;11943;52.270;20.978;2023-07-16T14:50:52;31.60;50.60
23532;DHT22;11943;52.270;20.978;2023-07-16T14:53:18;31.50;50.50
23532;DHT22;11943;52.270;20.978;2023-07-16T14:55:51;31.40;50.40
23532;DHT22;11943;52.270;20.978;2023-07-16T14:58:20;31.30;51.10
23532;DHT22;11943;52.270;20.978;2023-07-16T15:00:46;31.20;51.00
23532;DHT22;11943;52.270;20.978;2023-07-16T15:03:12;31.10;50.70
23532;DHT22;11943;52.270;20.978;2023-07-16T15:05:38;31.10;52.10
23532;DHT22;11943;52.270;20.978;2023-07-16T15:08:04;31.10;51.50
23532;DHT22;11943;52.270;20.978;2023-07-16T15:10:30;31.10;51.30
23532;DHT22;11943;52.270;20.978;2023-07-16T15:12:56;31.10;51.60
23532;DHT22;11943;52.270;20.978;2023-07-16T15:15:21;31.10;51.30
23532;DHT22;11943;52.270;20.978;2023-07-16T15:17:48;31.00;51.50
23532;DHT22;11943;52.270;20.978;2023-07-16T15:20:14;31.00;51.50
23532;DHT22;11943;52.270;20.978;2023-07-16T15:22:39;31.00;51.70
23532;DHT22;11943;52.270;20.978;2023-07-16T15:25:06;30.90;51.80